sensor_id;sensor_type;location;lat;lon;timestamp;P1;durP1;ratioP1;P2;durP2;ratioP2
23317;SDS011;11831;55.918;37.746;2023-06-10T00:00:43;9.57;;;3.87;;
23317;SDS011;11831;55.918;37.746;2023-06-10T00:03:11;7.12;;;3.55;;
23317;SDS011;11831;55.918;37.746;2023-06-10T00:05:38;6.93;;;3.40;;
23317;SDS011;11831;55.918;37.746;2023-06-10T00:08:05;8.20;;;3.72;;
23317;SDS011;11831;55.918;37.746;2023-06-10T00:10:37;11.30;;;4.43;;
23317;SDS011;11831;55.918;37.746;2023-06-10T00:13:05;8.48;;;3.75;;
23317;SDS011;11831;55.918;37.746;2023-06-10T00:15:35;8.75;;;4.00;;
23317;SDS011;11831;55.918;37.746;2023-06-10T00:18:01;10.18;;;3.87;;
23317;SDS011;11831;55.918;37.746;2023-06-10T00:20:29;7.85;;;3.17;;
23317;SDS011;11831;55.918;37.746;2023-06-10T00:22:57;8.38;;;3.37;;
23317;SDS011;11831;55.918;37.746;2023-06-10T00:25:25;6.37;;;3.30;;
23317;SDS011;11831;55.918;37.746;2023-06-10T00:27:51;5.15;;;3.40;;
23317;SDS011;11831;55.918;37.746;2023-06-10T00:30:18;6.07;;;3.33;;
23317;SDS011;11831;55.918;37.746;2023-06-10T00:32:44;4.28;;;3.40;;
23317;SDS011;11831;55.918;37.746;2023-06-10T00:35:10;5.40;;;3.03;;
23317;SDS011;11831;55.918;37.746;2023-06-10T00:37:37;7.15;;;3.10;;
23317;SDS011;11831;55.918;37.746;2023-06-10T00:40:04;5.68;;;3.15;;
23317;SDS011;11831;55.918;37.746;2023-06-10T00:42:31;7.32;;;3.20;;
23317;SDS011;11831;55.918;37.746;2023-06-10T00:44:57;5.43;;;3.00;;
23317;SDS011;11831;55.918;37.746;2023-06-10T00:47:24;3.33;;;3.03;;
23317;SDS011;11831;55.918;37.746;2023-06-10T00:49:51;3.67;;;3.10;;
23317;SDS011;11831;55.918;37.746;2023-06-10T00:52:19;9.68;;;3.35;;
23317;SDS011;11831;55.918;37.746;2023-06-10T00:54:48;4.45;;;3.12;;
23317;SDS011;11831;55.918;37.746;2023-06-10T00:57:14;4.97;;;3.03;;
23317;SDS011;11831;55.918;37.746;2023-06-10T00:59:41;7.82;;;3.30;;
23317;SDS011;11831;55.918;37.746;2023-06-10T01:02:13;4.35;;;3.28;;
23317;SDS011;11831;55.918;37.746;2023-06-10T01:04:40;4.00;;;3.15;;
23317;SDS011;11831;55.918;37.746;2023-06-10T01:07:14;6.22;;;2.95;;
23317;SDS011;11831;55.918;37.746;2023-06-10T01:10:01;8.43;;;3.70;;
23317;SDS011;11831;55.918;37.746;2023-06-10T01:15:30;5.07;;;3.80;;
23317;SDS011;11831;55.918;37.746;2023-06-10T01:17:58;5.22;;;3.95;;
23317;SDS011;11831;55.918;37.746;2023-06-10T01:20:41;5.55;;;4.10;;
23317;SDS011;11831;55.918;37.746;2023-06-10T01:23:11;5.18;;;3.08;;
23317;SDS011;11831;55.918;37.746;2023-06-10T01:25:38;6.10;;;3.53;;
23317;SDS011;11831;55.918;37.746;2023-06-10T01:28:17;7.10;;;3.62;;
23317;SDS011;11831;55.918;37.746;2023-06-10T01:31:11;4.72;;;3.12;;
23317;SDS011;11831;55.918;37.746;2023-06-10T01:33:48;4.72;;;3.05;;
23317;SDS011;11831;55.918;37.746;2023-06-10T01:36:19;7.15;;;3.47;;
23317;SDS011;11831;55.918;37.746;2023-06-10T01:38:48;3.78;;;3.10;;
23317;SDS011;11831;55.918;37.746;2023-06-10T01:41:16;5.97;;;3.00;;
23317;SDS011;11831;55.918;37.746;2023-06-10T01:43:44;6.07;;;3.25;;
23317;SDS011;11831;55.918;37.746;2023-06-10T01:46:12;5.97;;;3.25;;
23317;SDS011;11831;55.918;37.746;2023-06-10T01:48:40;6.47;;;2.90;;
23317;SDS011;11831;55.918;37.746;2023-06-10T01:51:09;7.07;;;2.60;;
23317;SDS011;11831;55.918;37.746;2023-06-10T01:53:36;4.03;;;2.92;;
23317;SDS011;11831;55.918;37.746;2023-06-10T01:56:02;3.37;;;3.03;;
23317;SDS011;11831;55.918;37.746;2023-06-10T01:58:29;7.45;;;2.70;;
23317;SDS011;11831;55.918;37.746;2023-06-10T02:00:55;6.93;;;3.37;;
23317;SDS011;11831;55.918;37.746;2023-06-10T02:03:22;7.28;;;3.15;;
23317;SDS011;11831;55.918;37.746;2023-06-10T02:05:49;7.07;;;3.25;;
23317;SDS011;11831;55.918;37.746;2023-06-10T02:08:16;5.95;;;3.08;;
23317;SDS011;11831;55.918;37.746;2023-06-10T02:10:42;9.10;;;3.30;;
23317;SDS011;11831;55.918;37.746;2023-06-10T02:13:09;9.60;;;3.42;;
23317;SDS011;11831;55.918;37.746;2023-06-10T02:15:35;8.77;;;2.90;;
23317;SDS011;11831;55.918;37.746;2023-06-10T02:18:02;11.38;;;3.55;;
23317;SDS011;11831;55.918;37.746;2023-06-10T02:20:28;10.88;;;3.33;;
23317;SDS011;11831;55.918;37.746;2023-06-10T02:22:55;9.38;;;3.78;;
23317;SDS011;11831;55.918;37.746;2023-06-10T02:25:21;4.10;;;2.97;;
23317;SDS011;11831;55.918;37.746;2023-06-10T02:27:47;4.07;;;2.62;;
23317;SDS011;11831;55.918;37.746;2023-06-10T02:30:14;5.43;;;2.62;;
23317;SDS011;11831;55.918;37.746;2023-06-10T02:32:41;5.22;;;2.80;;
23317;SDS011;11831;55.918;37.746;2023-06-10T02:35:07;3.00;;;2.22;;
23317;SDS011;11831;55.918;37.746;2023-06-10T02:37:38;5.50;;;2.53;;
23317;SDS011;11831;55.918;37.746;2023-06-10T02:40:04;4.78;;;2.62;;
23317;SDS011;11831;55.918;37.746;2023-06-10T02:42:32;7.55;;;2.70;;
23317;SDS011;11831;55.918;37.746;2023-06-10T02:44:58;8.77;;;2.92;;
23317;SDS011;11831;55.918;37.746;2023-06-10T02:47:27;8.43;;;2.50;;
23317;SDS011;11831;55.918;37.746;2023-06-10T02:49:53;2.70;;;2.30;;
23317;SDS011;11831;55.918;37.746;2023-06-10T02:52:19;4.03;;;2.40;;
23317;SDS011;11831;55.918;37.746;2023-06-10T02:54:46;3.42;;;2.50;;
23317;SDS011;11831;55.918;37.746;2023-06-10T02:57:12;5.22;;;2.30;;
23317;SDS011;11831;55.918;37.746;2023-06-10T02:59:40;3.10;;;1.90;;
23317;SDS011;11831;55.918;37.746;2023-06-10T03:02:06;5.35;;;2.25;;
23317;SDS011;11831;55.918;37.746;2023-06-10T03:04:33;2.22;;;2.00;;
23317;SDS011;11831;55.918;37.746;2023-06-10T03:07:00;7.00;;;2.00;;
23317;SDS011;11831;55.918;37.746;2023-06-10T03:09:29;2.92;;;1.80;;
23317;SDS011;11831;55.918;37.746;2023-06-10T03:11:56;2.37;;;1.87;;
23317;SDS011;11831;55.918;37.746;2023-06-10T03:14:22;4.60;;;2.30;;
23317;SDS011;11831;55.918;37.746;2023-06-10T03:16:50;2.72;;;1.80;;
23317;SDS011;11831;55.918;37.746;2023-06-10T03:19:17;4.00;;;1.80;;
23317;SDS011;11831;55.918;37.746;2023-06-10T03:21:43;6.95;;;1.98;;
23317;SDS011;11831;55.918;37.746;2023-06-10T03:24:10;5.10;;;1.98;;
23317;SDS011;11831;55.918;37.746;2023-06-10T03:26:37;5.35;;;1.98;;
23317;SDS011;11831;55.918;37.746;2023-06-10T03:29:04;7.40;;;2.22;;
23317;SDS011;11831;55.918;37.746;2023-06-10T03:31:31;9.07;;;2.50;;
23317;SDS011;11831;55.918;37.746;2023-06-10T03:33:57;4.00;;;1.90;;
23317;SDS011;11831;55.918;37.746;2023-06-10T03:36:24;1.92;;;1.67;;
23317;SDS011;11831;55.918;37.746;2023-06-10T03:38:50;4.37;;;1.90;;
23317;SDS011;11831;55.918;37.746;2023-06-10T03:41:18;2.85;;;1.60;;
23317;SDS011;11831;55.918;37.746;2023-06-10T03:43:44;4.35;;;1.77;;
23317;SDS011;11831;55.918;37.746;2023-06-10T03:46:10;5.12;;;1.90;;
23317;SDS011;11831;55.918;37.746;2023-06-10T03:48:37;2.83;;;1.58;;
23317;SDS011;11831;55.918;37.746;2023-06-10T03:51:04;3.03;;;2.05;;
23317;SDS011;11831;55.918;37.746;2023-06-10T03:53:31;4.62;;;1.70;;
23317;SDS011;11831;55.918;37.746;2023-06-10T03:55:58;2.60;;;1.62;;
23317;SDS011;11831;55.918;37.746;2023-06-10T03:58:24;2.28;;;1.90;;
23317;SDS011;11831;55.918;37.746;2023-06-10T04:00:52;2.92;;;1.90;;
23317;SDS011;11831;55.918;37.746;2023-06-10T04:03:21;5.05;;;1.67;;
23317;SDS011;11831;55.918;37.746;2023-06-10T04:05:48;3.87;;;1.50;;
23317;SDS011;11831;55.918;37.746;2023-06-10T04:08:16;3.72;;;1.50;;
23317;SDS011;11831;55.918;37.746;2023-06-10T04:10:42;2.85;;;1.50;;
23317;SDS011;11831;55.918;37.746;2023-06-10T04:13:08;6.47;;;1.60;;
23317;SDS011;11831;55.918;37.746;2023-06-10T04:15:35;1.95;;;1.40;;
23317;SDS011;11831;55.918;37.746;2023-06-10T04:18:02;2.05;;;1.62;;
23317;SDS011;11831;55.918;37.746;2023-06-10T04:20:28;2.22;;;1.55;;
23317;SDS011;11831;55.918;37.746;2023-06-10T04:22:55;2.30;;;1.42;;
23317;SDS011;11831;55.918;37.746;2023-06-10T04:25:21;2.37;;;1.70;;
23317;SDS011;11831;55.918;37.746;2023-06-10T04:27:48;4.15;;;1.52;;
23317;SDS011;11831;55.918;37.746;2023-06-10T04:30:14;4.50;;;1.75;;
23317;SDS011;11831;55.918;37.746;2023-06-10T04:32:41;2.42;;;1.73;;
23317;SDS011;11831;55.918;37.746;2023-06-10T04:35:08;3.37;;;1.80;;
23317;SDS011;11831;55.918;37.746;2023-06-10T04:37:37;4.85;;;1.62;;
23317;SDS011;11831;55.918;37.746;2023-06-10T04:40:04;2.15;;;1.58;;
23317;SDS011;11831;55.918;37.746;2023-06-10T04:42:31;2.00;;;1.73;;
23317;SDS011;11831;55.918;37.746;2023-06-10T04:44:58;2.40;;;1.52;;
23317;SDS011;11831;55.918;37.746;2023-06-10T04:47:25;3.15;;;1.35;;
23317;SDS011;11831;55.918;37.746;2023-06-10T04:49:52;1.65;;;1.20;;
23317;SDS011;11831;55.918;37.746;2023-06-10T04:52:18;3.10;;;1.75;;
23317;SDS011;11831;55.918;37.746;2023-06-10T04:54:45;4.43;;;1.40;;
23317;SDS011;11831;55.918;37.746;2023-06-10T04:57:12;5.32;;;1.90;;
23317;SDS011;11831;55.918;37.746;2023-06-10T04:59:38;3.47;;;1.65;;
23317;SDS011;11831;55.918;37.746;2023-06-10T05:02:04;2.62;;;1.62;;
23317;SDS011;11831;55.918;37.746;2023-06-10T05:04:31;2.42;;;1.77;;
23317;SDS011;11831;55.918;37.746;2023-06-10T05:06:57;3.33;;;1.60;;
23317;SDS011;11831;55.918;37.746;2023-06-10T05:09:24;4.37;;;1.42;;
23317;SDS011;11831;55.918;37.746;2023-06-10T05:11:51;2.35;;;1.37;;
23317;SDS011;11831;55.918;37.746;2023-06-10T05:14:19;5.47;;;1.85;;
23317;SDS011;11831;55.918;37.746;2023-06-10T05:16:47;2.50;;;1.37;;
23317;SDS011;11831;55.918;37.746;2023-06-10T05:19:14;4.75;;;1.50;;
23317;SDS011;11831;55.918;37.746;2023-06-10T05:21:42;3.45;;;1.48;;
23317;SDS011;11831;55.918;37.746;2023-06-10T05:24:09;2.35;;;1.35;;
23317;SDS011;11831;55.918;37.746;2023-06-10T05:26:36;2.37;;;1.37;;
23317;SDS011;11831;55.918;37.746;2023-06-10T05:29:04;1.50;;;1.20;;
23317;SDS011;11831;55.918;37.746;2023-06-10T05:31:31;4.12;;;1.50;;
23317;SDS011;11831;55.918;37.746;2023-06-10T05:33:57;2.95;;;1.25;;
23317;SDS011;11831;55.918;37.746;2023-06-10T05:36:24;5.25;;;1.45;;
23317;SDS011;11831;55.918;37.746;2023-06-10T05:38:52;4.95;;;1.30;;
23317;SDS011;11831;55.918;37.746;2023-06-10T05:41:18;3.12;;;1.27;;
23317;SDS011;11831;55.918;37.746;2023-06-10T05:43:44;2.28;;;1.30;;
23317;SDS011;11831;55.918;37.746;2023-06-10T05:46:11;1.92;;;1.45;;
23317;SDS011;11831;55.918;37.746;2023-06-10T05:48:37;2.50;;;1.30;;
23317;SDS011;11831;55.918;37.746;2023-06-10T05:51:04;4.93;;;1.55;;
23317;SDS011;11831;55.918;37.746;2023-06-10T05:53:31;3.70;;;1.40;;
23317;SDS011;11831;55.918;37.746;2023-06-10T05:55:57;4.37;;;1.60;;
23317;SDS011;11831;55.918;37.746;2023-06-10T05:58:24;1.65;;;1.20;;
23317;SDS011;11831;55.918;37.746;2023-06-10T06:00:50;2.60;;;1.30;;
23317;SDS011;11831;55.918;37.746;2023-06-10T06:03:17;5.25;;;1.10;;
23317;SDS011;11831;55.918;37.746;2023-06-10T06:05:44;2.15;;;1.25;;
23317;SDS011;11831;55.918;37.746;2023-06-10T06:08:11;9.85;;;4.70;;
23317;SDS011;11831;55.918;37.746;2023-06-10T06:10:39;2.47;;;1.62;;
23317;SDS011;11831;55.918;37.746;2023-06-10T06:13:05;3.67;;;1.25;;
23317;SDS011;11831;55.918;37.746;2023-06-10T06:15:31;3.53;;;1.20;;
23317;SDS011;11831;55.918;37.746;2023-06-10T06:17:58;1.30;;;1.00;;
23317;SDS011;11831;55.918;37.746;2023-06-10T06:20:24;4.18;;;1.25;;
23317;SDS011;11831;55.918;37.746;2023-06-10T06:22:51;1.30;;;1.20;;
23317;SDS011;11831;55.918;37.746;2023-06-10T06:25:17;1.67;;;1.10;;
23317;SDS011;11831;55.918;37.746;2023-06-10T06:27:43;4.75;;;1.40;;
23317;SDS011;11831;55.918;37.746;2023-06-10T06:30:10;4.35;;;1.25;;
23317;SDS011;11831;55.918;37.746;2023-06-10T06:32:37;1.77;;;1.10;;
23317;SDS011;11831;55.918;37.746;2023-06-10T06:35:04;3.30;;;1.30;;
23317;SDS011;11831;55.918;37.746;2023-06-10T06:37:33;3.72;;;1.00;;
23317;SDS011;11831;55.918;37.746;2023-06-10T06:40:00;2.00;;;1.12;;
23317;SDS011;11831;55.918;37.746;2023-06-10T06:42:27;3.35;;;0.90;;
23317;SDS011;11831;55.918;37.746;2023-06-10T06:44:54;1.08;;;0.98;;
23317;SDS011;11831;55.918;37.746;2023-06-10T06:47:20;1.37;;;0.90;;
23317;SDS011;11831;55.918;37.746;2023-06-10T06:49:47;2.80;;;1.20;;
23317;SDS011;11831;55.918;37.746;2023-06-10T06:52:14;2.72;;;1.02;;
23317;SDS011;11831;55.918;37.746;2023-06-10T06:54:41;1.75;;;1.02;;
23317;SDS011;11831;55.918;37.746;2023-06-10T06:57:08;2.55;;;1.05;;
23317;SDS011;11831;55.918;37.746;2023-06-10T06:59:34;1.95;;;0.90;;
23317;SDS011;11831;55.918;37.746;2023-06-10T07:02:00;17.15;;;9.73;;
23317;SDS011;11831;55.918;37.746;2023-06-10T07:04:26;4.72;;;1.60;;
23317;SDS011;11831;55.918;37.746;2023-06-10T07:06:53;2.97;;;1.62;;
23317;SDS011;11831;55.918;37.746;2023-06-10T07:09:19;5.18;;;1.40;;
23317;SDS011;11831;55.918;37.746;2023-06-10T07:11:46;4.93;;;1.10;;
23317;SDS011;11831;55.918;37.746;2023-06-10T07:14:12;2.42;;;1.25;;
23317;SDS011;11831;55.918;37.746;2023-06-10T07:16:39;3.47;;;0.98;;
23317;SDS011;11831;55.918;37.746;2023-06-10T07:19:05;3.62;;;1.15;;
23317;SDS011;11831;55.918;37.746;2023-06-10T07:21:32;3.85;;;1.00;;
23317;SDS011;11831;55.918;37.746;2023-06-10T07:23:59;2.95;;;1.30;;
23317;SDS011;11831;55.918;37.746;2023-06-10T07:26:26;1.55;;;1.08;;
23317;SDS011;11831;55.918;37.746;2023-06-10T07:28:52;1.80;;;0.98;;
23317;SDS011;11831;55.918;37.746;2023-06-10T07:31:19;1.25;;;0.90;;
23317;SDS011;11831;55.918;37.746;2023-06-10T07:33:46;3.42;;;1.30;;
23317;SDS011;11831;55.918;37.746;2023-06-10T07:36:12;1.33;;;1.10;;
23317;SDS011;11831;55.918;37.746;2023-06-10T07:38:39;1.33;;;0.82;;
23317;SDS011;11831;55.918;37.746;2023-06-10T07:41:08;1.00;;;0.80;;
23317;SDS011;11831;55.918;37.746;2023-06-10T07:43:35;3.83;;;0.88;;
23317;SDS011;11831;55.918;37.746;2023-06-10T07:46:01;2.70;;;0.90;;
23317;SDS011;11831;55.918;37.746;2023-06-10T07:48:27;2.65;;;0.85;;
23317;SDS011;11831;55.918;37.746;2023-06-10T07:50:53;1.62;;;1.00;;
23317;SDS011;11831;55.918;37.746;2023-06-10T07:53:20;0.90;;;0.80;;
23317;SDS011;11831;55.918;37.746;2023-06-10T07:55:46;2.22;;;1.00;;
23317;SDS011;11831;55.918;37.746;2023-06-10T07:58:13;1.30;;;0.90;;
23317;SDS011;11831;55.918;37.746;2023-06-10T08:00:39;6.18;;;4.18;;
23317;SDS011;11831;55.918;37.746;2023-06-10T08:03:05;2.87;;;1.67;;
23317;SDS011;11831;55.918;37.746;2023-06-10T08:05:33;1.77;;;1.10;;
23317;SDS011;11831;55.918;37.746;2023-06-10T08:07:59;3.40;;;1.25;;
23317;SDS011;11831;55.918;37.746;2023-06-10T08:10:25;1.12;;;0.80;;
23317;SDS011;11831;55.918;37.746;2023-06-10T08:12:52;4.10;;;0.95;;
23317;SDS011;11831;55.918;37.746;2023-06-10T08:15:18;1.20;;;0.90;;
23317;SDS011;11831;55.918;37.746;2023-06-10T08:17:45;2.60;;;0.80;;
23317;SDS011;11831;55.918;37.746;2023-06-10T08:20:11;1.10;;;1.00;;
23317;SDS011;11831;55.918;37.746;2023-06-10T08:22:37;4.15;;;0.90;;
23317;SDS011;11831;55.918;37.746;2023-06-10T08:25:04;3.28;;;1.40;;
23317;SDS011;11831;55.918;37.746;2023-06-10T08:27:31;1.65;;;0.90;;
23317;SDS011;11831;55.918;37.746;2023-06-10T08:29:57;1.73;;;0.73;;
23317;SDS011;11831;55.918;37.746;2023-06-10T08:32:26;1.30;;;0.85;;
23317;SDS011;11831;55.918;37.746;2023-06-10T08:34:52;2.53;;;1.10;;
23317;SDS011;11831;55.918;37.746;2023-06-10T08:37:19;3.78;;;0.90;;
23317;SDS011;11831;55.918;37.746;2023-06-10T08:39:45;2.75;;;1.10;;
23317;SDS011;11831;55.918;37.746;2023-06-10T08:44:48;10.02;;;1.33;;
23317;SDS011;11831;55.918;37.746;2023-06-10T08:47:18;2.33;;;1.20;;
23317;SDS011;11831;55.918;37.746;2023-06-10T08:49:48;4.05;;;1.12;;
23317;SDS011;11831;55.918;37.746;2023-06-10T08:52:18;2.03;;;0.80;;
23317;SDS011;11831;55.918;37.746;2023-06-10T08:54:52;3.10;;;1.10;;
23317;SDS011;11831;55.918;37.746;2023-06-10T08:57:26;2.60;;;0.80;;
23317;SDS011;11831;55.918;37.746;2023-06-10T08:59:53;1.45;;;0.80;;
23317;SDS011;11831;55.918;37.746;2023-06-10T09:02:23;0.98;;;0.90;;
23317;SDS011;11831;55.918;37.746;2023-06-10T09:04:50;2.35;;;0.90;;
23317;SDS011;11831;55.918;37.746;2023-06-10T09:07:17;1.75;;;1.10;;
23317;SDS011;11831;55.918;37.746;2023-06-10T09:09:45;1.12;;;0.80;;
23317;SDS011;11831;55.918;37.746;2023-06-10T09:12:13;1.20;;;0.90;;
23317;SDS011;11831;55.918;37.746;2023-06-10T09:14:41;2.10;;;0.80;;
23317;SDS011;11831;55.918;37.746;2023-06-10T09:17:10;1.80;;;1.10;;
23317;SDS011;11831;55.918;37.746;2023-06-10T09:19:38;2.78;;;1.00;;
23317;SDS011;11831;55.918;37.746;2023-06-10T09:22:04;4.18;;;1.37;;
23317;SDS011;11831;55.918;37.746;2023-06-10T09:24:31;11.18;;;1.90;;
23317;SDS011;11831;55.918;37.746;2023-06-10T09:27:02;4.87;;;1.45;;
23317;SDS011;11831;55.918;37.746;2023-06-10T09:29:46;4.37;;;1.98;;
23317;SDS011;11831;55.918;37.746;2023-06-10T09:32:21;4.78;;;1.30;;
23317;SDS011;11831;55.918;37.746;2023-06-10T09:34:48;6.65;;;1.58;;
23317;SDS011;11831;55.918;37.746;2023-06-10T09:37:22;10.35;;;1.70;;
23317;SDS011;11831;55.918;37.746;2023-06-10T09:40:05;3.22;;;1.05;;
23317;SDS011;11831;55.918;37.746;2023-06-10T09:42:33;2.60;;;0.70;;
23317;SDS011;11831;55.918;37.746;2023-06-10T09:45:02;15.68;;;2.40;;
23317;SDS011;11831;55.918;37.746;2023-06-10T09:47:29;3.65;;;1.10;;
23317;SDS011;11831;55.918;37.746;2023-06-10T09:49:56;6.03;;;1.42;;
23317;SDS011;11831;55.918;37.746;2023-06-10T09:52:23;6.47;;;1.25;;
23317;SDS011;11831;55.918;37.746;2023-06-10T09:54:53;11.12;;;2.00;;
23317;SDS011;11831;55.918;37.746;2023-06-10T09:57:25;5.75;;;1.52;;
23317;SDS011;11831;55.918;37.746;2023-06-10T09:59:55;4.03;;;1.40;;
23317;SDS011;11831;55.918;37.746;2023-06-10T10:02:21;1.52;;;1.00;;
23317;SDS011;11831;55.918;37.746;2023-06-10T10:04:48;2.15;;;1.00;;
23317;SDS011;11831;55.918;37.746;2023-06-10T10:07:15;3.12;;;1.00;;
23317;SDS011;11831;55.918;37.746;2023-06-10T10:09:42;3.58;;;0.93;;
23317;SDS011;11831;55.918;37.746;2023-06-10T10:12:09;7.05;;;1.10;;
23317;SDS011;11831;55.918;37.746;2023-06-10T10:14:40;2.12;;;1.00;;
23317;SDS011;11831;55.918;37.746;2023-06-10T10:17:13;4.50;;;1.67;;
23317;SDS011;11831;55.918;37.746;2023-06-10T10:19:50;4.55;;;1.12;;
23317;SDS011;11831;55.918;37.746;2023-06-10T10:22:27;5.50;;;1.20;;
23317;SDS011;11831;55.918;37.746;2023-06-10T10:25:12;11.48;;;1.60;;
23317;SDS011;11831;55.918;37.746;2023-06-10T10:27:44;3.47;;;0.98;;
23317;SDS011;11831;55.918;37.746;2023-06-10T10:30:14;4.05;;;1.20;;
23317;SDS011;11831;55.918;37.746;2023-06-10T10:32:45;7.22;;;1.20;;
23317;SDS011;11831;55.918;37.746;2023-06-10T10:35:29;1.23;;;0.93;;
23317;SDS011;11831;55.918;37.746;2023-06-10T10:37:56;4.00;;;1.05;;
23317;SDS011;11831;55.918;37.746;2023-06-10T10:40:23;4.65;;;1.27;;
23317;SDS011;11831;55.918;37.746;2023-06-10T10:42:51;5.72;;;1.33;;
23317;SDS011;11831;55.918;37.746;2023-06-10T10:45:18;5.07;;;1.17;;
23317;SDS011;11831;55.918;37.746;2023-06-10T10:47:48;1.30;;;0.90;;
23317;SDS011;11831;55.918;37.746;2023-06-10T10:50:19;3.80;;;1.10;;
23317;SDS011;11831;55.918;37.746;2023-06-10T10:52:51;4.45;;;1.12;;
23317;SDS011;11831;55.918;37.746;2023-06-10T10:55:24;3.33;;;0.98;;
23317;SDS011;11831;55.918;37.746;2023-06-10T10:57:55;1.55;;;0.80;;
23317;SDS011;11831;55.918;37.746;2023-06-10T11:00:29;3.70;;;1.20;;
23317;SDS011;11831;55.918;37.746;2023-06-10T11:03:08;3.72;;;1.20;;
23317;SDS011;11831;55.918;37.746;2023-06-10T11:05:39;5.87;;;1.37;;
23317;SDS011;11831;55.918;37.746;2023-06-10T11:08:10;1.20;;;0.90;;
23317;SDS011;11831;55.918;37.746;2023-06-10T11:10:37;2.28;;;1.00;;
23317;SDS011;11831;55.918;37.746;2023-06-10T11:13:19;4.55;;;1.40;;
23317;SDS011;11831;55.918;37.746;2023-06-10T11:15:47;3.03;;;1.20;;
23317;SDS011;11831;55.918;37.746;2023-06-10T11:18:25;5.05;;;1.05;;
23317;SDS011;11831;55.918;37.746;2023-06-10T11:21:04;2.90;;;0.90;;
23317;SDS011;11831;55.918;37.746;2023-06-10T11:23:33;5.85;;;1.45;;
23317;SDS011;11831;55.918;37.746;2023-06-10T11:26:11;2.37;;;0.82;;
23317;SDS011;11831;55.918;37.746;2023-06-10T11:29:07;1.58;;;1.02;;
23317;SDS011;11831;55.918;37.746;2023-06-10T11:31:41;1.20;;;1.10;;
23317;SDS011;11831;55.918;37.746;2023-06-10T11:34:09;2.30;;;1.20;;
23317;SDS011;11831;55.918;37.746;2023-06-10T11:36:40;2.97;;;1.27;;
23317;SDS011;11831;55.918;37.746;2023-06-10T11:39:08;1.20;;;1.10;;
23317;SDS011;11831;55.918;37.746;2023-06-10T11:41:37;2.67;;;0.80;;
23317;SDS011;11831;55.918;37.746;2023-06-10T11:44:07;2.50;;;0.90;;
23317;SDS011;11831;55.918;37.746;2023-06-10T11:46:38;3.78;;;1.02;;
23317;SDS011;11831;55.918;37.746;2023-06-10T11:49:05;2.97;;;1.10;;
23317;SDS011;11831;55.918;37.746;2023-06-10T11:51:33;7.50;;;1.58;;
23317;SDS011;11831;55.918;37.746;2023-06-10T11:54:06;2.50;;;1.10;;
23317;SDS011;11831;55.918;37.746;2023-06-10T11:56:35;5.28;;;1.30;;
23317;SDS011;11831;55.918;37.746;2023-06-10T11:59:02;5.05;;;1.48;;
23317;SDS011;11831;55.918;37.746;2023-06-10T12:01:32;2.67;;;1.25;;
23317;SDS011;11831;55.918;37.746;2023-06-10T12:04:07;1.52;;;1.10;;
23317;SDS011;11831;55.918;37.746;2023-06-10T12:06:38;2.65;;;1.00;;
23317;SDS011;11831;55.918;37.746;2023-06-10T12:11:33;1.75;;;0.93;;
23317;SDS011;11831;55.918;37.746;2023-06-10T12:14:00;2.20;;;1.20;;
23317;SDS011;11831;55.918;37.746;2023-06-10T12:16:26;4.65;;;1.50;;
23317;SDS011;11831;55.918;37.746;2023-06-10T12:19:00;1.50;;;1.20;;
23317;SDS011;11831;55.918;37.746;2023-06-10T12:21:31;3.45;;;1.15;;
23317;SDS011;11831;55.918;37.746;2023-06-10T12:24:07;1.05;;;0.95;;
23317;SDS011;11831;55.918;37.746;2023-06-10T12:29:12;3.00;;;1.20;;
23317;SDS011;11831;55.918;37.746;2023-06-10T12:31:54;1.92;;;1.00;;
23317;SDS011;11831;55.918;37.746;2023-06-10T12:34:38;3.53;;;1.17;;
23317;SDS011;11831;55.918;37.746;2023-06-10T12:37:06;3.67;;;1.17;;
23317;SDS011;11831;55.918;37.746;2023-06-10T12:39:39;5.47;;;1.37;;
23317;SDS011;11831;55.918;37.746;2023-06-10T12:42:08;4.18;;;1.20;;
23317;SDS011;11831;55.918;37.746;2023-06-10T12:44:38;4.65;;;1.12;;
23317;SDS011;11831;55.918;37.746;2023-06-10T12:47:09;1.50;;;1.00;;
23317;SDS011;11831;55.918;37.746;2023-06-10T12:49:38;1.83;;;1.05;;
23317;SDS011;11831;55.918;37.746;2023-06-10T12:52:05;2.20;;;1.50;;
23317;SDS011;11831;55.918;37.746;2023-06-10T12:54:32;5.37;;;3.67;;
23317;SDS011;11831;55.918;37.746;2023-06-10T12:56:58;2.40;;;1.33;;
23317;SDS011;11831;55.918;37.746;2023-06-10T12:59:26;4.85;;;1.40;;
23317;SDS011;11831;55.918;37.746;2023-06-10T13:01:53;2.78;;;1.15;;
23317;SDS011;11831;55.918;37.746;2023-06-10T13:04:20;2.03;;;1.17;;
23317;SDS011;11831;55.918;37.746;2023-06-10T13:06:47;3.50;;;1.00;;
23317;SDS011;11831;55.918;37.746;2023-06-10T13:09:15;1.80;;;1.05;;
23317;SDS011;11831;55.918;37.746;2023-06-10T13:11:42;4.35;;;1.00;;
23317;SDS011;11831;55.918;37.746;2023-06-10T13:14:08;2.83;;;1.10;;
23317;SDS011;11831;55.918;37.746;2023-06-10T13:16:37;4.12;;;1.27;;
23317;SDS011;11831;55.918;37.746;2023-06-10T13:19:04;3.55;;;1.23;;
23317;SDS011;11831;55.918;37.746;2023-06-10T13:21:34;2.67;;;0.90;;
23317;SDS011;11831;55.918;37.746;2023-06-10T13:24:00;4.30;;;1.30;;
23317;SDS011;11831;55.918;37.746;2023-06-10T13:26:27;5.35;;;1.87;;
23317;SDS011;11831;55.918;37.746;2023-06-10T13:28:53;1.67;;;1.30;;
23317;SDS011;11831;55.918;37.746;2023-06-10T13:31:20;2.47;;;1.90;;
23317;SDS011;11831;55.918;37.746;2023-06-10T13:33:46;4.10;;;1.40;;
23317;SDS011;11831;55.918;37.746;2023-06-10T13:36:13;3.47;;;1.10;;
23317;SDS011;11831;55.918;37.746;2023-06-10T13:38:39;3.12;;;1.00;;
23317;SDS011;11831;55.918;37.746;2023-06-10T13:41:06;2.45;;;1.10;;
23317;SDS011;11831;55.918;37.746;2023-06-10T13:43:32;2.60;;;1.20;;
23317;SDS011;11831;55.918;37.746;2023-06-10T13:45:58;4.97;;;1.48;;
23317;SDS011;11831;55.918;37.746;2023-06-10T13:48:26;3.85;;;1.15;;
23317;SDS011;11831;55.918;37.746;2023-06-10T13:50:52;3.50;;;1.17;;
23317;SDS011;11831;55.918;37.746;2023-06-10T13:53:18;3.55;;;1.20;;
23317;SDS011;11831;55.918;37.746;2023-06-10T13:55:45;3.55;;;1.17;;
23317;SDS011;11831;55.918;37.746;2023-06-10T13:58:11;2.78;;;1.12;;
23317;SDS011;11831;55.918;37.746;2023-06-10T14:00:37;1.20;;;1.10;;
23317;SDS011;11831;55.918;37.746;2023-06-10T14:03:04;5.78;;;1.70;;
23317;SDS011;11831;55.918;37.746;2023-06-10T14:05:30;4.93;;;1.17;;
23317;SDS011;11831;55.918;37.746;2023-06-10T14:07:57;3.05;;;1.20;;
23317;SDS011;11831;55.918;37.746;2023-06-10T14:10:23;2.90;;;1.05;;
23317;SDS011;11831;55.918;37.746;2023-06-10T14:12:50;3.90;;;2.58;;
23317;SDS011;11831;55.918;37.746;2023-06-10T14:15:17;1.50;;;1.15;;
23317;SDS011;11831;55.918;37.746;2023-06-10T14:17:43;5.00;;;1.70;;
23317;SDS011;11831;55.918;37.746;2023-06-10T14:20:10;3.20;;;1.35;;
23317;SDS011;11831;55.918;37.746;2023-06-10T14:22:37;2.92;;;1.60;;
23317;SDS011;11831;55.918;37.746;2023-06-10T14:25:04;5.07;;;1.50;;
23317;SDS011;11831;55.918;37.746;2023-06-10T14:27:30;2.10;;;1.33;;
23317;SDS011;11831;55.918;37.746;2023-06-10T14:29:57;7.93;;;1.17;;
23317;SDS011;11831;55.918;37.746;2023-06-10T14:32:23;3.35;;;1.45;;
23317;SDS011;11831;55.918;37.746;2023-06-10T14:34:49;1.23;;;1.12;;
23317;SDS011;11831;55.918;37.746;2023-06-10T14:37:16;4.00;;;1.23;;
23317;SDS011;11831;55.918;37.746;2023-06-10T14:39:42;3.90;;;1.12;;
23317;SDS011;11831;55.918;37.746;2023-06-10T14:42:09;1.50;;;1.08;;
23317;SDS011;11831;55.918;37.746;2023-06-10T14:44:36;1.87;;;0.95;;
23317;SDS011;11831;55.918;37.746;2023-06-10T14:47:02;3.85;;;1.50;;
23317;SDS011;11831;55.918;37.746;2023-06-10T14:49:29;2.20;;;1.10;;